sensor_id;sensor_type;location;lat;lon;timestamp;temperature;humidity
82506;SHT30;72144;51.444;10.560;2023-11-22T00:02:24;3.31;79.30
82506;SHT30;72144;51.444;10.560;2023-11-22T00:04:54;3.29;79.24
82506;SHT30;72144;51.444;10.560;2023-11-22T00:07:19;3.29;79.28
82506;SHT30;72144;51.444;10.560;2023-11-22T00:09:44;3.28;79.41
82506;SHT30;72144;51.444;10.560;2023-11-22T00:12:11;3.28;79.28
82506;SHT30;72144;51.444;10.560;2023-11-22T00:14:37;3.23;79.34
82506;SHT30;72144;51.444;10.560;2023-11-22T00:17:02;3.25;79.25
82506;SHT30;72144;51.444;10.560;2023-11-22T00:19:28;3.23;79.32
82506;SHT30;72144;51.444;10.560;2023-11-22T00:21:53;3.22;79.34
82506;SHT30;72144;51.444;10.560;2023-11-22T00:24:19;3.18;79.31
82506;SHT30;72144;51.444;10.560;2023-11-22T00:26:44;3.18;79.30
82506;SHT30;72144;51.444;10.560;2023-11-22T00:29:09;3.19;79.34
82506;SHT30;72144;51.444;10.560;2023-11-22T00:31:35;3.18;79.34
82506;SHT30;72144;51.444;10.560;2023-11-22T00:34:00;3.16;79.29
82506;SHT30;72144;51.444;10.560;2023-11-22T00:36:25;3.15;79.42
82506;SHT30;72144;51.444;10.560;2023-11-22T00:38:51;3.11;79.47
82506;SHT30;72144;51.444;10.560;2023-11-22T00:41:16;3.08;79.45
82506;SHT30;72144;51.444;10.560;2023-11-22T00:43:42;3.07;79.49
82506;SHT30;72144;51.444;10.560;2023-11-22T00:46:07;3.04;79.45
82506;SHT30;72144;51.444;10.560;2023-11-22T00:48:33;3.03;79.56
82506;SHT30;72144;51.444;10.560;2023-11-22T00:50:58;2.98;79.61
82506;SHT30;72144;51.444;10.560;2023-11-22T00:53:24;2.97;79.62
82506;SHT30;72144;51.444;10.560;2023-11-22T00:55:50;2.97;79.68
82506;SHT30;72144;51.444;10.560;2023-11-22T00:58:15;2.97;79.87
82506;SHT30;72144;51.444;10.560;2023-11-22T01:00:40;2.97;79.55
82506;SHT30;72144;51.444;10.560;2023-11-22T01:03:06;2.94;79.64
82506;SHT30;72144;51.444;10.560;2023-11-22T01:05:34;2.91;79.47
82506;SHT30;72144;51.444;10.560;2023-11-22T01:07:59;2.87;79.66
82506;SHT30;72144;51.444;10.560;2023-11-22T01:10:25;2.86;79.71
82506;SHT30;72144;51.444;10.560;2023-11-22T01:12:50;2.86;79.70
82506;SHT30;72144;51.444;10.560;2023-11-22T01:15:15;2.83;79.78
82506;SHT30;72144;51.444;10.560;2023-11-22T01:17:41;2.84;79.71
82506;SHT30;72144;51.444;10.560;2023-11-22T01:20:07;2.84;79.77
82506;SHT30;72144;51.444;10.560;2023-11-22T01:22:35;2.81;79.79
82506;SHT30;72144;51.444;10.560;2023-11-22T01:25:00;2.80;79.76
82506;SHT30;72144;51.444;10.560;2023-11-22T01:27:26;2.79;79.72
82506;SHT30;72144;51.444;10.560;2023-11-22T01:29:52;2.80;79.80
82506;SHT30;72144;51.444;10.560;2023-11-22T01:32:19;2.77;79.73
82506;SHT30;72144;51.444;10.560;2023-11-22T01:34:45;2.76;79.80
82506;SHT30;72144;51.444;10.560;2023-11-22T01:37:10;2.76;79.81
82506;SHT30;72144;51.444;10.560;2023-11-22T01:39:39;2.75;79.83
82506;SHT30;72144;51.444;10.560;2023-11-22T01:42:05;2.72;79.83
82506;SHT30;72144;51.444;10.560;2023-11-22T01:44:31;2.70;79.84
82506;SHT30;72144;51.444;10.560;2023-11-22T01:46:57;2.67;79.80
82506;SHT30;72144;51.444;10.560;2023-11-22T01:49:23;2.64;79.83
82506;SHT30;72144;51.444;10.560;2023-11-22T01:51:49;2.63;79.80
82506;SHT30;72144;51.444;10.560;2023-11-22T01:54:15;2.62;79.77
82506;SHT30;72144;51.444;10.560;2023-11-22T01:56:42;2.59;79.49
82506;SHT30;72144;51.444;10.560;2023-11-22T01:59:07;2.56;79.66
82506;SHT30;72144;51.444;10.560;2023-11-22T02:01:33;2.54;79.70
82506;SHT30;72144;51.444;10.560;2023-11-22T02:03:58;2.50;79.77
82506;SHT30;72144;51.444;10.560;2023-11-22T02:06:24;2.48;79.67
82506;SHT30;72144;51.444;10.560;2023-11-22T02:08:50;2.48;79.72
82506;SHT30;72144;51.444;10.560;2023-11-22T02:11:19;2.48;79.71
82506;SHT30;72144;51.444;10.560;2023-11-22T02:13:50;2.46;79.65
82506;SHT30;72144;51.444;10.560;2023-11-22T02:16:19;2.42;79.66
82506;SHT30;72144;51.444;10.560;2023-11-22T02:18:45;2.42;79.62
82506;SHT30;72144;51.444;10.560;2023-11-22T02:21:11;2.39;79.68
82506;SHT30;72144;51.444;10.560;2023-11-22T02:23:36;2.36;79.73
82506;SHT30;72144;51.444;10.560;2023-11-22T02:26:02;2.32;79.59
82506;SHT30;72144;51.444;10.560;2023-11-22T02:28:27;2.29;79.63
82506;SHT30;72144;51.444;10.560;2023-11-22T02:30:53;2.29;79.48
82506;SHT30;72144;51.444;10.560;2023-11-22T02:33:19;2.26;79.50
82506;SHT30;72144;51.444;10.560;2023-11-22T02:35:45;2.25;79.53
82506;SHT30;72144;51.444;10.560;2023-11-22T02:38:11;2.20;79.48
82506;SHT30;72144;51.444;10.560;2023-11-22T02:40:36;2.20;79.54
82506;SHT30;72144;51.444;10.560;2023-11-22T02:43:02;2.17;79.42
82506;SHT30;72144;51.444;10.560;2023-11-22T02:45:32;2.17;79.29
82506;SHT30;72144;51.444;10.560;2023-11-22T02:47:58;2.14;79.19
82506;SHT30;72144;51.444;10.560;2023-11-22T02:50:24;2.13;79.25
82506;SHT30;72144;51.444;10.560;2023-11-22T02:52:50;2.08;79.19
82506;SHT30;72144;51.444;10.560;2023-11-22T02:55:16;2.06;79.21
82506;SHT30;72144;51.444;10.560;2023-11-22T02:57:41;2.03;79.22
82506;SHT30;72144;51.444;10.560;2023-11-22T03:00:08;2.00;79.09
82506;SHT30;72144;51.444;10.560;2023-11-22T03:02:34;1.98;79.10
82506;SHT30;72144;51.444;10.560;2023-11-22T03:05:00;1.96;79.10
82506;SHT30;72144;51.444;10.560;2023-11-22T03:07:26;1.93;79.09
82506;SHT30;72144;51.444;10.560;2023-11-22T03:09:52;1.90;79.00
82506;SHT30;72144;51.444;10.560;2023-11-22T03:12:18;1.89;78.96
82506;SHT30;72144;51.444;10.560;2023-11-22T03:14:45;1.84;78.98
82506;SHT30;72144;51.444;10.560;2023-11-22T03:17:11;1.81;79.02
82506;SHT30;72144;51.444;10.560;2023-11-22T03:19:38;1.77;78.95
82506;SHT30;72144;51.444;10.560;2023-11-22T03:22:05;1.76;78.98
82506;SHT30;72144;51.444;10.560;2023-11-22T03:24:32;1.73;78.94
82506;SHT30;72144;51.444;10.560;2023-11-22T03:27:00;1.69;78.98
82506;SHT30;72144;51.444;10.560;2023-11-22T03:29:26;1.66;78.88
82506;SHT30;72144;51.444;10.560;2023-11-22T03:31:52;1.64;78.96
82506;SHT30;72144;51.444;10.560;2023-11-22T03:34:19;1.62;78.97
82506;SHT30;72144;51.444;10.560;2023-11-22T03:36:44;1.58;78.98
82506;SHT30;72144;51.444;10.560;2023-11-22T03:39:09;1.53;79.02
82506;SHT30;72144;51.444;10.560;2023-11-22T03:41:35;1.52;78.92
82506;SHT30;72144;51.444;10.560;2023-11-22T03:44:03;1.44;78.96
82506;SHT30;72144;51.444;10.560;2023-11-22T03:46:28;1.46;78.90
82506;SHT30;72144;51.444;10.560;2023-11-22T03:48:54;1.39;78.97
82506;SHT30;72144;51.444;10.560;2023-11-22T03:51:19;1.36;79.03
82506;SHT30;72144;51.444;10.560;2023-11-22T03:53:44;1.35;78.93
82506;SHT30;72144;51.444;10.560;2023-11-22T03:56:10;1.30;79.05
82506;SHT30;72144;51.444;10.560;2023-11-22T03:58:35;1.27;79.10
82506;SHT30;72144;51.444;10.560;2023-11-22T04:01:01;1.27;79.17
82506;SHT30;72144;51.444;10.560;2023-11-22T04:03:28;1.24;79.05
82506;SHT30;72144;51.444;10.560;2023-11-22T04:05:53;1.25;78.94
82506;SHT30;72144;51.444;10.560;2023-11-22T04:08:19;1.23;79.07
82506;SHT30;72144;51.444;10.560;2023-11-22T04:10:45;1.20;79.13
82506;SHT30;72144;51.444;10.560;2023-11-22T04:13:10;1.18;79.10
82506;SHT30;72144;51.444;10.560;2023-11-22T04:15:36;1.18;79.05
82506;SHT30;72144;51.444;10.560;2023-11-22T04:18:01;1.16;79.09
82506;SHT30;72144;51.444;10.560;2023-11-22T04:20:27;1.16;79.14
82506;SHT30;72144;51.444;10.560;2023-11-22T04:22:52;1.13;79.08
82506;SHT30;72144;51.444;10.560;2023-11-22T04:25:17;1.13;79.15
82506;SHT30;72144;51.444;10.560;2023-11-22T04:27:43;1.13;79.23
82506;SHT30;72144;51.444;10.560;2023-11-22T04:30:09;1.10;79.36
82506;SHT30;72144;51.444;10.560;2023-11-22T04:32:40;1.13;79.26
82506;SHT30;72144;51.444;10.560;2023-11-22T04:35:06;1.13;79.33
82506;SHT30;72144;51.444;10.560;2023-11-22T04:37:31;1.10;79.25
82506;SHT30;72144;51.444;10.560;2023-11-22T04:39:58;1.10;79.29
82506;SHT30;72144;51.444;10.560;2023-11-22T04:42:24;1.13;79.34
82506;SHT30;72144;51.444;10.560;2023-11-22T04:44:49;1.13;79.31
82506;SHT30;72144;51.444;10.560;2023-11-22T04:47:14;1.13;79.35
82506;SHT30;72144;51.444;10.560;2023-11-22T04:49:40;1.14;79.39
82506;SHT30;72144;51.444;10.560;2023-11-22T04:52:05;1.13;79.33
82506;SHT30;72144;51.444;10.560;2023-11-22T04:54:31;1.14;79.36
82506;SHT30;72144;51.444;10.560;2023-11-22T04:56:57;1.13;79.34
82506;SHT30;72144;51.444;10.560;2023-11-22T04:59:23;1.13;79.40
82506;SHT30;72144;51.444;10.560;2023-11-22T05:01:48;1.14;79.46
82506;SHT30;72144;51.444;10.560;2023-11-22T05:04:14;1.13;79.46
82506;SHT30;72144;51.444;10.560;2023-11-22T05:06:39;1.16;79.46
82506;SHT30;72144;51.444;10.560;2023-11-22T05:09:05;1.14;79.52
82506;SHT30;72144;51.444;10.560;2023-11-22T05:11:31;1.11;79.53
82506;SHT30;72144;51.444;10.560;2023-11-22T05:13:57;1.13;79.47
82506;SHT30;72144;51.444;10.560;2023-11-22T05:16:22;1.13;79.58
82506;SHT30;72144;51.444;10.560;2023-11-22T05:18:49;1.13;79.58
82506;SHT30;72144;51.444;10.560;2023-11-22T05:21:15;1.10;79.62
82506;SHT30;72144;51.444;10.560;2023-11-22T05:23:40;1.11;79.72
82506;SHT30;72144;51.444;10.560;2023-11-22T05:26:06;1.08;79.75
82506;SHT30;72144;51.444;10.560;2023-11-22T05:28:31;1.10;79.74
82506;SHT30;72144;51.444;10.560;2023-11-22T05:30:57;1.11;79.70
82506;SHT30;72144;51.444;10.560;2023-11-22T05:33:22;1.14;79.70
82506;SHT30;72144;51.444;10.560;2023-11-22T05:35:48;1.11;79.78
82506;SHT30;72144;51.444;10.560;2023-11-22T05:38:14;1.11;79.75
82506;SHT30;72144;51.444;10.560;2023-11-22T05:40:40;1.11;79.81
82506;SHT30;72144;51.444;10.560;2023-11-22T05:43:06;1.10;79.90
82506;SHT30;72144;51.444;10.560;2023-11-22T05:45:33;1.11;79.87
82506;SHT30;72144;51.444;10.560;2023-11-22T05:47:59;1.13;79.83
82506;SHT30;72144;51.444;10.560;2023-11-22T05:50:24;1.11;79.87
82506;SHT30;72144;51.444;10.560;2023-11-22T05:52:49;1.13;79.89
82506;SHT30;72144;51.444;10.560;2023-11-22T05:55:15;1.11;79.85
82506;SHT30;72144;51.444;10.560;2023-11-22T05:57:41;1.13;79.96
82506;SHT30;72144;51.444;10.560;2023-11-22T06:00:07;1.13;79.92
82506;SHT30;72144;51.444;10.560;2023-11-22T06:02:33;1.11;79.87
82506;SHT30;72144;51.444;10.560;2023-11-22T06:04:58;1.11;79.99
82506;SHT30;72144;51.444;10.560;2023-11-22T06:07:24;1.11;80.02
82506;SHT30;72144;51.444;10.560;2023-11-22T06:09:49;1.13;79.96
82506;SHT30;72144;51.444;10.560;2023-11-22T06:12:14;1.11;80.04
82506;SHT30;72144;51.444;10.560;2023-11-22T06:14:40;1.13;80.00
82506;SHT30;72144;51.444;10.560;2023-11-22T06:17:05;1.13;80.09
82506;SHT30;72144;51.444;10.560;2023-11-22T06:19:30;1.14;80.09
82506;SHT30;72144;51.444;10.560;2023-11-22T06:21:56;1.13;80.17
82506;SHT30;72144;51.444;10.560;2023-11-22T06:24:21;1.10;80.14
82506;SHT30;72144;51.444;10.560;2023-11-22T06:26:47;1.08;80.11
82506;SHT30;72144;51.444;10.560;2023-11-22T06:29:12;1.08;80.12
82506;SHT30;72144;51.444;10.560;2023-11-22T06:31:38;1.08;80.17
82506;SHT30;72144;51.444;10.560;2023-11-22T06:34:03;1.10;80.16
82506;SHT30;72144;51.444;10.560;2023-11-22T06:36:29;1.10;80.16
82506;SHT30;72144;51.444;10.560;2023-11-22T06:38:55;1.07;80.12
82506;SHT30;72144;51.444;10.560;2023-11-22T06:41:20;1.07;80.14
82506;SHT30;72144;51.444;10.560;2023-11-22T06:43:47;1.10;80.23
82506;SHT30;72144;51.444;10.560;2023-11-22T06:46:12;1.08;80.21
82506;SHT30;72144;51.444;10.560;2023-11-22T06:48:38;1.10;80.21
82506;SHT30;72144;51.444;10.560;2023-11-22T06:51:03;1.11;80.25
82506;SHT30;72144;51.444;10.560;2023-11-22T06:53:29;1.08;80.23
82506;SHT30;72144;51.444;10.560;2023-11-22T06:55:54;1.10;80.13
82506;SHT30;72144;51.444;10.560;2023-11-22T06:58:19;1.07;80.13
82506;SHT30;72144;51.444;10.560;2023-11-22T07:00:45;1.11;80.09
82506;SHT30;72144;51.444;10.560;2023-11-22T07:03:10;1.08;80.26
82506;SHT30;72144;51.444;10.560;2023-11-22T07:05:36;1.08;80.42
82506;SHT30;72144;51.444;10.560;2023-11-22T07:08:02;1.10;80.55
82506;SHT30;72144;51.444;10.560;2023-11-22T07:10:28;1.10;80.31
82506;SHT30;72144;51.444;10.560;2023-11-22T07:12:53;1.13;80.04
82506;SHT30;72144;51.444;10.560;2023-11-22T07:15:19;1.10;79.86
82506;SHT30;72144;51.444;10.560;2023-11-22T07:17:44;1.10;79.71
82506;SHT30;72144;51.444;10.560;2023-11-22T07:20:10;1.08;79.60
82506;SHT30;72144;51.444;10.560;2023-11-22T07:22:41;1.08;79.56
82506;SHT30;72144;51.444;10.560;2023-11-22T07:25:09;1.07;79.49
82506;SHT30;72144;51.444;10.560;2023-11-22T07:27:44;1.08;79.79
82506;SHT30;72144;51.444;10.560;2023-11-22T07:30:10;1.08;80.09
82506;SHT30;72144;51.444;10.560;2023-11-22T07:32:38;1.08;80.06
82506;SHT30;72144;51.444;10.560;2023-11-22T07:35:05;1.11;80.12
82506;SHT30;72144;51.444;10.560;2023-11-22T07:37:30;1.10;79.97
82506;SHT30;72144;51.444;10.560;2023-11-22T07:39:56;1.07;80.02
82506;SHT30;72144;51.444;10.560;2023-11-22T07:42:22;1.05;79.98
82506;SHT30;72144;51.444;10.560;2023-11-22T07:44:48;1.05;80.00
82506;SHT30;72144;51.444;10.560;2023-11-22T07:47:15;1.04;79.98
82506;SHT30;72144;51.444;10.560;2023-11-22T07:49:41;1.00;79.94
82506;SHT30;72144;51.444;10.560;2023-11-22T07:52:07;1.04;79.94
82506;SHT30;72144;51.444;10.560;2023-11-22T07:54:32;1.00;80.02
82506;SHT30;72144;51.444;10.560;2023-11-22T07:56:58;0.99;79.96
82506;SHT30;72144;51.444;10.560;2023-11-22T07:59:23;0.96;79.98
82506;SHT30;72144;51.444;10.560;2023-11-22T08:01:48;0.99;80.02
82506;SHT30;72144;51.444;10.560;2023-11-22T08:04:14;0.96;80.08
82506;SHT30;72144;51.444;10.560;2023-11-22T08:06:42;0.99;80.08
82506;SHT30;72144;51.444;10.560;2023-11-22T08:09:07;0.97;80.10
82506;SHT30;72144;51.444;10.560;2023-11-22T08:11:35;0.96;80.08
82506;SHT30;72144;51.444;10.560;2023-11-22T08:14:01;0.97;80.18
82506;SHT30;72144;51.444;10.560;2023-11-22T08:16:26;0.96;80.14
82506;SHT30;72144;51.444;10.560;2023-11-22T08:18:52;0.94;80.29
82506;SHT30;72144;51.444;10.560;2023-11-22T08:21:18;0.93;80.34
82506;SHT30;72144;51.444;10.560;2023-11-22T08:23:45;0.91;80.32
82506;SHT30;72144;51.444;10.560;2023-11-22T08:26:12;0.93;80.31
82506;SHT30;72144;51.444;10.560;2023-11-22T08:28:37;0.91;80.36
82506;SHT30;72144;51.444;10.560;2023-11-22T08:31:03;0.90;80.34
82506;SHT30;72144;51.444;10.560;2023-11-22T08:33:39;0.89;80.28
82506;SHT30;72144;51.444;10.560;2023-11-22T08:36:08;0.89;80.32
82506;SHT30;72144;51.444;10.560;2023-11-22T08:38:37;0.91;80.28
82506;SHT30;72144;51.444;10.560;2023-11-22T08:41:07;0.93;80.34
82506;SHT30;72144;51.444;10.560;2023-11-22T08:43:33;0.93;80.40
82506;SHT30;72144;51.444;10.560;2023-11-22T08:45:59;0.94;80.41
82506;SHT30;72144;51.444;10.560;2023-11-22T08:48:25;0.94;80.44
82506;SHT30;72144;51.444;10.560;2023-11-22T08:50:51;0.99;80.28
82506;SHT30;72144;51.444;10.560;2023-11-22T08:53:19;0.99;80.40
82506;SHT30;72144;51.444;10.560;2023-11-22T08:55:45;1.03;80.37
82506;SHT30;72144;51.444;10.560;2023-11-22T08:58:10;1.03;80.37
82506;SHT30;72144;51.444;10.560;2023-11-22T09:00:36;1.04;80.33
82506;SHT30;72144;51.444;10.560;2023-11-22T09:03:01;1.05;80.19
82506;SHT30;72144;51.444;10.560;2023-11-22T09:05:28;1.04;80.03
82506;SHT30;72144;51.444;10.560;2023-11-22T09:07:54;1.07;80.00
82506;SHT30;72144;51.444;10.560;2023-11-22T09:10:21;1.04;80.02
82506;SHT30;72144;51.444;10.560;2023-11-22T09:12:47;1.05;79.97
82506;SHT30;72144;51.444;10.560;2023-11-22T09:15:13;1.08;80.08
82506;SHT30;72144;51.444;10.560;2023-11-22T09:17:44;1.07;80.03
82506;SHT30;72144;51.444;10.560;2023-11-22T09:20:15;1.10;80.00
82506;SHT30;72144;51.444;10.560;2023-11-22T09:25:19;1.14;80.10
82506;SHT30;72144;51.444;10.560;2023-11-22T09:27:46;1.17;80.15
82506;SHT30;72144;51.444;10.560;2023-11-22T09:30:13;1.18;80.03
82506;SHT30;72144;51.444;10.560;2023-11-22T09:33:13;1.18;79.97
82506;SHT30;72144;51.444;10.560;2023-11-22T09:35:43;1.23;79.83
82506;SHT30;72144;51.444;10.560;2023-11-22T09:38:12;1.23;79.82
82506;SHT30;72144;51.444;10.560;2023-11-22T09:40:48;1.21;79.71
82506;SHT30;72144;51.444;10.560;2023-11-22T09:43:15;1.24;79.80
82506;SHT30;72144;51.444;10.560;2023-11-22T09:45:43;1.24;79.72
82506;SHT30;72144;51.444;10.560;2023-11-22T09:48:19;1.23;79.47
82506;SHT30;72144;51.444;10.560;2023-11-22T09:51:02;1.27;79.59
82506;SHT30;72144;51.444;10.560;2023-11-22T09:53:52;1.27;79.69
82506;SHT30;72144;51.444;10.560;2023-11-22T09:56:19;1.28;79.76
82506;SHT30;72144;51.444;10.560;2023-11-22T09:58:45;1.32;79.82
82506;SHT30;72144;51.444;10.560;2023-11-22T10:01:13;1.32;79.74
82506;SHT30;72144;51.444;10.560;2023-11-22T10:03:39;1.34;79.69
82506;SHT30;72144;51.444;10.560;2023-11-22T10:06:06;1.35;79.58
82506;SHT30;72144;51.444;10.560;2023-11-22T10:08:32;1.35;79.56
82506;SHT30;72144;51.444;10.560;2023-11-22T10:10:58;1.35;79.70
82506;SHT30;72144;51.444;10.560;2023-11-22T10:13:24;1.41;79.98
82506;SHT30;72144;51.444;10.560;2023-11-22T10:15:50;1.42;79.95
82506;SHT30;72144;51.444;10.560;2023-11-22T10:18:19;1.45;79.63
82506;SHT30;72144;51.444;10.560;2023-11-22T10:20:47;1.45;79.80
82506;SHT30;72144;51.444;10.560;2023-11-22T10:23:15;1.46;79.90
82506;SHT30;72144;51.444;10.560;2023-11-22T10:25:45;1.53;79.83
82506;SHT30;72144;51.444;10.560;2023-11-22T10:28:13;1.52;79.72
82506;SHT30;72144;51.444;10.560;2023-11-22T10:30:38;1.55;79.83
82506;SHT30;72144;51.444;10.560;2023-11-22T10:33:06;1.60;79.85
82506;SHT30;72144;51.444;10.560;2023-11-22T10:35:31;1.60;79.71
82506;SHT30;72144;51.444;10.560;2023-11-22T10:37:59;1.63;79.76
82506;SHT30;72144;51.444;10.560;2023-11-22T10:40:28;1.69;79.96
82506;SHT30;72144;51.444;10.560;2023-11-22T10:42:56;1.70;79.81
82506;SHT30;72144;51.444;10.560;2023-11-22T10:45:21;1.73;79.78
82506;SHT30;72144;51.444;10.560;2023-11-22T10:47:49;1.79;79.81
82506;SHT30;72144;51.444;10.560;2023-11-22T10:50:14;1.79;79.77
82506;SHT30;72144;51.444;10.560;2023-11-22T10:52:41;1.79;79.68
82506;SHT30;72144;51.444;10.560;2023-11-22T10:55:12;1.83;79.66
82506;SHT30;72144;51.444;10.560;2023-11-22T10:57:45;1.84;79.38
82506;SHT30;72144;51.444;10.560;2023-11-22T11:00:15;1.84;79.40
82506;SHT30;72144;51.444;10.560;2023-11-22T11:02:45;1.89;79.42
82506;SHT30;72144;51.444;10.560;2023-11-22T11:05:16;1.90;79.32
82506;SHT30;72144;51.444;10.560;2023-11-22T11:07:49;1.91;79.11
82506;SHT30;72144;51.444;10.560;2023-11-22T11:10:18;1.94;79.03
82506;SHT30;72144;51.444;10.560;2023-11-22T11:12:45;1.96;78.87
82506;SHT30;72144;51.444;10.560;2023-11-22T11:15:10;1.98;79.05
82506;SHT30;72144;51.444;10.560;2023-11-22T11:17:36;2.03;79.38
82506;SHT30;72144;51.444;10.560;2023-11-22T11:20:05;2.04;79.31
82506;SHT30;72144;51.444;10.560;2023-11-22T11:22:32;2.07;79.26
82506;SHT30;72144;51.444;10.560;2023-11-22T11:25:05;2.08;79.10
82506;SHT30;72144;51.444;10.560;2023-11-22T11:27:34;2.11;79.09
82506;SHT30;72144;51.444;10.560;2023-11-22T11:33:12;2.18;79.23
82506;SHT30;72144;51.444;10.560;2023-11-22T11:35:48;2.24;79.21
82506;SHT30;72144;51.444;10.560;2023-11-22T11:38:15;2.26;79.29
82506;SHT30;72144;51.444;10.560;2023-11-22T11:40:43;2.28;79.38
82506;SHT30;72144;51.444;10.560;2023-11-22T11:43:10;2.32;79.42
82506;SHT30;72144;51.444;10.560;2023-11-22T11:45:41;2.36;79.21
82506;SHT30;72144;51.444;10.560;2023-11-22T11:48:14;2.41;79.24
82506;SHT30;72144;51.444;10.560;2023-11-22T11:50:43;2.43;79.24
82506;SHT30;72144;51.444;10.560;2023-11-22T11:53:09;2.49;79.28
82506;SHT30;72144;51.444;10.560;2023-11-22T11:55:36;2.50;79.30
82506;SHT30;72144;51.444;10.560;2023-11-22T11:58:08;2.57;79.09
82506;SHT30;72144;51.444;10.560;2023-11-22T12:00:35;2.59;78.91
82506;SHT30;72144;51.444;10.560;2023-11-22T12:03:01;2.62;78.76
82506;SHT30;72144;51.444;10.560;2023-11-22T12:05:27;2.66;78.91
82506;SHT30;72144;51.444;10.560;2023-11-22T12:07:53;2.67;78.94
82506;SHT30;72144;51.444;10.560;2023-11-22T12:10:18;2.70;78.92
82506;SHT30;72144;51.444;10.560;2023-11-22T12:12:44;2.73;79.02
82506;SHT30;72144;51.444;10.560;2023-11-22T12:15:11;2.76;78.90
82506;SHT30;72144;51.444;10.560;2023-11-22T12:17:36;2.81;78.96
82506;SHT30;72144;51.444;10.560;2023-11-22T12:20:15;2.84;78.73
82506;SHT30;72144;51.444;10.560;2023-11-22T12:22:43;2.86;78.76
82506;SHT30;72144;51.444;10.560;2023-11-22T12:25:10;2.88;78.91
82506;SHT30;72144;51.444;10.560;2023-11-22T12:27:41;2.93;78.77
82506;SHT30;72144;51.444;10.560;2023-11-22T12:30:07;2.97;79.03
82506;SHT30;72144;51.444;10.560;2023-11-22T12:32:33;3.00;78.82
82506;SHT30;72144;51.444;10.560;2023-11-22T12:34:58;3.00;78.78
82506;SHT30;72144;51.444;10.560;2023-11-22T12:37:24;3.04;78.80
82506;SHT30;72144;51.444;10.560;2023-11-22T12:39:50;3.04;78.64
82506;SHT30;72144;51.444;10.560;2023-11-22T12:42:18;3.08;78.56
82506;SHT30;72144;51.444;10.560;2023-11-22T12:44:52;3.11;78.39
82506;SHT30;72144;51.444;10.560;2023-11-22T12:47:33;3.12;78.16
82506;SHT30;72144;51.444;10.560;2023-11-22T12:50:03;3.15;78.39
82506;SHT30;72144;51.444;10.560;2023-11-22T12:52:29;3.15;78.29
82506;SHT30;72144;51.444;10.560;2023-11-22T12:54:57;3.19;78.10
82506;SHT30;72144;51.444;10.560;2023-11-22T12:57:23;3.18;77.66
82506;SHT30;72144;51.444;10.560;2023-11-22T12:59:49;3.18;78.03
82506;SHT30;72144;51.444;10.560;2023-11-22T13:02:14;3.22;78.02
82506;SHT30;72144;51.444;10.560;2023-11-22T13:04:41;3.21;78.04
82506;SHT30;72144;51.444;10.560;2023-11-22T13:07:06;3.23;78.26
82506;SHT30;72144;51.444;10.560;2023-11-22T13:09:32;3.26;78.46
82506;SHT30;72144;51.444;10.560;2023-11-22T13:11:59;3.26;78.48
82506;SHT30;72144;51.444;10.560;2023-11-22T13:14:24;3.29;78.26
82506;SHT30;72144;51.444;10.560;2023-11-22T13:16:51;3.29;78.37
82506;SHT30;72144;51.444;10.560;2023-11-22T13:19:17;3.35;78.44
82506;SHT30;72144;51.444;10.560;2023-11-22T13:21:42;3.33;78.45
82506;SHT30;72144;51.444;10.560;2023-11-22T13:24:09;3.35;78.24
82506;SHT30;72144;51.444;10.560;2023-11-22T13:26:34;3.33;78.10
82506;SHT30;72144;51.444;10.560;2023-11-22T13:29:00;3.36;77.89
82506;SHT30;72144;51.444;10.560;2023-11-22T13:31:26;3.36;78.14
82506;SHT30;72144;51.444;10.560;2023-11-22T13:33:51;3.40;78.41
82506;SHT30;72144;51.444;10.560;2023-11-22T13:36:16;3.39;78.54
82506;SHT30;72144;51.444;10.560;2023-11-22T13:38:42;3.39;78.08
82506;SHT30;72144;51.444;10.560;2023-11-22T13:41:08;3.38;78.06
82506;SHT30;72144;51.444;10.560;2023-11-22T13:43:34;3.39;78.08
82506;SHT30;72144;51.444;10.560;2023-11-22T13:46:00;3.38;77.88
82506;SHT30;72144;51.444;10.560;2023-11-22T13:48:25;3.38;77.81
82506;SHT30;72144;51.444;10.560;2023-11-22T13:50:51;3.35;77.64
82506;SHT30;72144;51.444;10.560;2023-11-22T13:53:16;3.36;77.59
82506;SHT30;72144;51.444;10.560;2023-11-22T13:55:47;3.33;77.22
82506;SHT30;72144;51.444;10.560;2023-11-22T13:58:12;3.33;77.28
82506;SHT30;72144;51.444;10.560;2023-11-22T14:00:38;3.33;77.15
82506;SHT30;72144;51.444;10.560;2023-11-22T14:03:04;3.29;77.11
82506;SHT30;72144;51.444;10.560;2023-11-22T14:05:32;3.31;77.23
82506;SHT30;72144;51.444;10.560;2023-11-22T14:07:58;3.28;77.17
82506;SHT30;72144;51.444;10.560;2023-11-22T14:10:24;3.26;77.37
82506;SHT30;72144;51.444;10.560;2023-11-22T14:12:49;3.25;77.17
82506;SHT30;72144;51.444;10.560;2023-11-22T14:15:15;3.22;77.25
82506;SHT30;72144;51.444;10.560;2023-11-22T14:17:41;3.25;77.29
82506;SHT30;72144;51.444;10.560;2023-11-22T14:20:12;3.22;77.21
82506;SHT30;72144;51.444;10.560;2023-11-22T14:22:39;3.22;77.40
82506;SHT30;72144;51.444;10.560;2023-11-22T14:25:05;3.19;77.37
82506;SHT30;72144;51.444;10.560;2023-11-22T14:27:38;3.16;77.32
82506;SHT30;72144;51.444;10.560;2023-11-22T14:30:04;3.15;77.14
82506;SHT30;72144;51.444;10.560;2023-11-22T14:32:33;3.12;76.93
82506;SHT30;72144;51.444;10.560;2023-11-22T14:34:59;3.11;77.09
82506;SHT30;72144;51.444;10.560;2023-11-22T14:37:27;3.08;76.89
82506;SHT30;72144;51.444;10.560;2023-11-22T14:39:52;3.04;76.65
82506;SHT30;72144;51.444;10.560;2023-11-22T14:42:19;3.01;77.00
82506;SHT30;72144;51.444;10.560;2023-11-22T14:44:44;3.01;77.05
82506;SHT30;72144;51.444;10.560;2023-11-22T14:47:10;3.00;77.09
82506;SHT30;72144;51.444;10.560;2023-11-22T14:49:41;2.94;77.15
82506;SHT30;72144;51.444;10.560;2023-11-22T14:52:08;2.96;77.23
82506;SHT30;72144;51.444;10.560;2023-11-22T14:54:38;2.93;77.40
82506;SHT30;72144;51.444;10.560;2023-11-22T14:57:03;2.90;77.04
82506;SHT30;72144;51.444;10.560;2023-11-22T14:59:30;2.87;77.09
82506;SHT30;72144;51.444;10.560;2023-11-22T15:01:56;2.86;77.10
82506;SHT30;72144;51.444;10.560;2023-11-22T15:04:25;2.84;77.01
82506;SHT30;72144;51.444;10.560;2023-11-22T15:06:51;2.81;77.33
82506;SHT30;72144;51.444;10.560;2023-11-22T15:09:17;2.80;77.55
82506;SHT30;72144;51.444;10.560;2023-11-22T15:11:43;2.76;77.58
82506;SHT30;72144;51.444;10.560;2023-11-22T15:14:09;2.76;77.57
82506;SHT30;72144;51.444;10.560;2023-11-22T15:16:34;2.73;77.56
82506;SHT30;72144;51.444;10.560;2023-11-22T15:19:01;2.72;77.88
82506;SHT30;72144;51.444;10.560;2023-11-22T15:21:30;2.69;77.79
82506;SHT30;72144;51.444;10.560;2023-11-22T15:23:56;2.66;77.96
82506;SHT30;72144;51.444;10.560;2023-11-22T15:26:22;2.63;77.98
82506;SHT30;72144;51.444;10.560;2023-11-22T15:28:47;2.62;77.99
82506;SHT30;72144;51.444;10.560;2023-11-22T15:31:16;2.59;78.04
82506;SHT30;72144;51.444;10.560;2023-11-22T15:33:41;2.57;78.07